LFBX/PGX METAR and TAF weather

Enter ICAO airport designator
Station Type Date Time Source
LFBX METAR 2021/08/02 03:00 UTC NOAA

LFBX 020300Z AUTO 00000KT 0450 0400 R29/0450N FG VV/// 11/10 Q1017


Station Type Date Time Source
LFBX Decoded METAR 2021/08/02 03:00 UTC NOAA

Perigueux, France (LFBX) 45-12N 000-49E 97M
Aug 01, 2021 - 11:00 PM EDT / 2021.08.02 0300 UTC
Wind: Calm:0
Visibility: less than 1 mile:0
Sky conditions: obscured
Weather: fog
Temperature: 51 F (11 C)
Dew Point: 50 F (10 C)
Relative Humidity: 93%
Pressure (altimeter): 30.03 in. Hg (1017 hPa)
ob: LFBX 020300Z AUTO 00000KT 0450 0400 R29/0450N FG VV/// 11/10 Q1017
cycle: 3

Station Type Date Time Source
LFBX TAF UTC NOAA

Error!

Example: see airport list